createdAt,value
2019-03-20T00:00:21.447Z,3.10
2019-03-20T00:02:50.598Z,3.10
2019-03-20T00:05:19.777Z,3.20
2019-03-20T00:07:48.927Z,3.20
2019-03-20T00:10:19.279Z,3.20
2019-03-20T00:12:48.528Z,3.10
2019-03-20T00:15:17.799Z,3.10
2019-03-20T00:17:47.034Z,3.10
2019-03-20T00:20:16.366Z,3.10
2019-03-20T00:22:45.595Z,3.10
2019-03-20T00:25:14.760Z,3.10
2019-03-20T00:27:43.998Z,3.20
2019-03-20T00:30:20.087Z,3.10
2019-03-20T00:32:49.258Z,3.10
2019-03-20T00:35:19.685Z,3.10
2019-03-20T00:37:48.935Z,3.10
2019-03-20T00:40:18.666Z,3.10
2019-03-20T00:42:47.875Z,3.10
2019-03-20T00:45:19.654Z,3.00
2019-03-20T00:47:48.826Z,3.00
2019-03-20T00:50:18.891Z,3.10
2019-03-20T00:52:48.069Z,3.10
2019-03-20T00:55:18.083Z,3.10
2019-03-20T00:57:47.774Z,3.10
2019-03-20T01:00:20.272Z,3.00
2019-03-20T01:02:49.436Z,2.90
2019-03-20T01:05:18.567Z,2.70
2019-03-20T01:07:47.785Z,2.60
2019-03-20T01:10:25.182Z,2.60
2019-03-20T01:12:54.410Z,2.70
2019-03-20T01:15:23.582Z,2.60
2019-03-20T01:17:52.756Z,2.50
2019-03-20T01:20:23.002Z,2.50
2019-03-20T01:22:52.216Z,2.40
2019-03-20T01:25:21.397Z,2.40
2019-03-20T01:27:50.631Z,2.40
2019-03-20T01:30:34.822Z,2.30
2019-03-20T01:33:12.010Z,2.20
2019-03-20T01:35:41.517Z,2.20
2019-03-20T01:38:11.144Z,2.20
2019-03-20T01:40:40.963Z,2.20
2019-03-20T01:43:10.391Z,2.20
2019-03-20T01:45:39.633Z,2.20
2019-03-20T01:48:08.798Z,2.20
2019-03-20T01:50:37.964Z,2.20
2019-03-20T01:53:07.195Z,2.20
2019-03-20T01:55:36.363Z,2.20
2019-03-20T01:58:05.514Z,2.10
2019-03-20T02:00:34.762Z,2.00
2019-03-20T02:03:03.965Z,1.90
2019-03-20T02:05:36.099Z,1.90
2019-03-20T02:08:04.050Z,1.90
2019-03-20T02:10:33.290Z,1.90
2019-03-20T02:13:02.531Z,1.90
2019-03-20T02:15:38.572Z,1.90
2019-03-20T02:18:02.768Z,1.80
2019-03-20T02:20:32.011Z,1.80
2019-03-20T02:23:01.204Z,1.80
2019-03-20T02:25:32.397Z,1.80
2019-03-20T02:28:01.428Z,1.80
2019-03-20T02:30:30.890Z,1.80
2019-03-20T02:33:00.131Z,1.80
2019-03-20T02:35:29.311Z,1.80
2019-03-20T02:37:58.577Z,1.80
2019-03-20T02:40:27.927Z,1.80
2019-03-20T02:42:57.142Z,1.70
2019-03-20T02:45:26.379Z,1.70
2019-03-20T02:47:55.676Z,1.70
2019-03-20T02:50:24.852Z,1.60
2019-03-20T02:52:54.096Z,1.60
2019-03-20T02:55:23.291Z,1.60
2019-03-20T02:57:52.459Z,1.50
2019-03-20T03:00:21.690Z,1.50
2019-03-20T03:02:50.887Z,1.50
2019-03-20T03:05:20.136Z,1.50
2019-03-20T03:07:49.281Z,1.40
2019-03-20T03:10:18.556Z,1.40
2019-03-20T03:12:47.754Z,1.40
2019-03-20T03:15:16.961Z,1.30
2019-03-20T03:17:46.184Z,1.20
2019-03-20T03:20:15.950Z,1.20
2019-03-20T03:22:45.128Z,1.10
2019-03-20T03:25:14.909Z,1.10
2019-03-20T03:27:44.144Z,1.10
2019-03-20T03:30:17.214Z,1.10
2019-03-20T03:32:46.714Z,1.10
2019-03-20T03:35:19.016Z,1.20
2019-03-20T03:37:46.949Z,1.20
2019-03-20T03:40:18.425Z,1.20
2019-03-20T03:42:47.672Z,1.20
2019-03-20T03:45:17.330Z,1.20
2019-03-20T03:47:46.534Z,1.20
2019-03-20T03:50:15.770Z,1.10
2019-03-20T03:52:45.011Z,1.00
2019-03-20T03:55:14.986Z,1.00
2019-03-20T03:57:44.465Z,1.10
2019-03-20T04:00:19.799Z,1.10
2019-03-20T04:02:48.976Z,1.10
2019-03-20T04:05:18.256Z,1.00
2019-03-20T04:07:47.518Z,1.10
2019-03-20T04:10:17.641Z,1.10
2019-03-20T04:12:47.941Z,1.10
2019-03-20T04:15:17.506Z,1.10
2019-03-20T04:17:46.810Z,1.00
2019-03-20T04:20:18.241Z,0.90
2019-03-20T04:22:47.484Z,0.90
2019-03-20T04:25:16.733Z,1.00
2019-03-20T04:27:46.085Z,1.10
2019-03-20T04:30:18.683Z,1.10
2019-03-20T04:32:47.980Z,1.10
2019-03-20T04:35:17.207Z,1.10
2019-03-20T04:37:46.565Z,1.10
2019-03-20T04:40:16.968Z,1.00
2019-03-20T04:42:46.159Z,1.10
2019-03-20T04:45:17.009Z,1.10
2019-03-20T04:47:46.189Z,1.10
2019-03-20T04:50:16.499Z,1.10
2019-03-20T04:52:45.688Z,1.10
2019-03-20T04:55:14.887Z,1.10
2019-03-20T04:57:45.857Z,1.10
2019-03-20T05:00:17.584Z,1.10
2019-03-20T05:02:46.737Z,1.00
2019-03-20T05:05:15.898Z,1.00
2019-03-20T05:07:45.066Z,1.00
2019-03-20T05:10:17.550Z,1.00
2019-03-20T05:12:46.769Z,1.00
2019-03-20T05:15:15.931Z,1.00
2019-03-20T05:17:45.116Z,1.00
2019-03-20T05:20:18.183Z,0.90
2019-03-20T05:22:47.395Z,1.00
2019-03-20T05:25:16.704Z,1.00
2019-03-20T05:27:45.939Z,1.10
2019-03-20T05:30:15.897Z,1.00
2019-03-20T05:32:45.058Z,1.00
2019-03-20T05:35:14.320Z,1.10
2019-03-20T05:37:43.481Z,1.10
2019-03-20T05:40:14.926Z,1.10
2019-03-20T05:42:44.199Z,1.10
2019-03-20T05:45:17.731Z,1.10
2019-03-20T05:47:47.032Z,1.10
2019-03-20T05:50:17.110Z,1.20
2019-03-20T05:52:46.297Z,1.10
2019-03-20T05:55:15.480Z,1.10
2019-03-20T05:57:44.704Z,1.00
2019-03-20T06:00:21.869Z,1.00
2019-03-20T06:02:52.110Z,1.00
2019-03-20T06:05:21.331Z,1.10
2019-03-20T06:07:51.760Z,1.30
2019-03-20T06:10:20.991Z,1.40
2019-03-20T06:12:50.161Z,1.40
2019-03-20T06:15:24.718Z,1.40
2019-03-20T06:17:52.646Z,1.50
2019-03-20T06:20:21.849Z,1.40
2019-03-20T06:22:51.090Z,1.50
2019-03-20T06:25:21.457Z,1.50
2019-03-20T06:27:52.888Z,1.60
2019-03-20T06:30:21.937Z,1.80
2019-03-20T06:32:51.134Z,1.70
2019-03-20T06:35:20.338Z,1.80
2019-03-20T06:37:49.555Z,1.80
2019-03-20T06:40:18.713Z,1.70
2019-03-20T06:42:48.188Z,1.80
2019-03-20T06:45:18.781Z,1.80
2019-03-20T06:47:47.949Z,1.80
2019-03-20T06:50:18.354Z,1.80
2019-03-20T06:52:47.550Z,1.90
2019-03-20T06:55:16.781Z,2.00
2019-03-20T06:57:46.036Z,2.10
2019-03-20T07:00:42.732Z,2.20
2019-03-20T07:03:25.660Z,2.40
2019-03-20T07:06:31.687Z,2.50
2019-03-20T07:09:22.361Z,2.60
2019-03-20T07:11:51.563Z,2.80
2019-03-20T07:14:21.996Z,2.90
2019-03-20T07:16:51.165Z,3.10
2019-03-20T07:19:20.336Z,3.20
2019-03-20T07:21:49.514Z,3.30
2019-03-20T07:24:20.723Z,3.40
2019-03-20T07:26:52.552Z,3.50
2019-03-20T07:29:21.781Z,3.60
2019-03-20T07:31:51.256Z,3.70
2019-03-20T07:34:20.549Z,3.80
2019-03-20T07:36:49.967Z,3.90
2019-03-20T07:39:19.267Z,4.10
2019-03-20T07:41:48.589Z,4.30
2019-03-20T07:44:17.925Z,4.50
2019-03-20T07:46:47.249Z,4.60
2019-03-20T07:49:17.759Z,4.80
2019-03-20T07:51:47.022Z,5.00
2019-03-20T07:54:16.185Z,5.10
2019-03-20T07:56:45.402Z,5.20
2019-03-20T07:59:14.570Z,5.40
2019-03-20T08:01:43.726Z,5.60
2019-03-20T08:04:13.869Z,5.80
2019-03-20T08:06:43.015Z,5.90
2019-03-20T08:09:12.207Z,5.90
2019-03-20T08:11:41.971Z,6.00
2019-03-20T08:14:11.463Z,6.20
2019-03-20T08:16:40.615Z,6.30
2019-03-20T08:19:09.825Z,6.40
2019-03-20T08:21:39.019Z,6.60
2019-03-20T08:24:08.220Z,6.60
2019-03-20T08:26:37.374Z,6.70
2019-03-20T08:29:06.531Z,6.90
2019-03-20T08:31:35.704Z,7.10
2019-03-20T08:34:04.872Z,7.30
2019-03-20T08:36:34.077Z,8.10
2019-03-20T08:39:03.492Z,9.80
2019-03-20T08:41:34.348Z,11.80
2019-03-20T08:44:03.641Z,13.60
2019-03-20T08:46:32.839Z,15.10
2019-03-20T08:49:02.259Z,16.70
2019-03-20T08:51:32.761Z,18.00
2019-03-20T08:54:02.024Z,17.00
2019-03-20T08:56:31.328Z,16.30
2019-03-20T08:59:00.869Z,16.70
2019-03-20T09:01:30.216Z,17.40
2019-03-20T09:03:59.548Z,18.50
2019-03-20T09:06:28.818Z,18.90
2019-03-20T09:08:58.240Z,18.80
2019-03-20T09:11:27.645Z,19.20
2019-03-20T09:13:56.997Z,19.90
2019-03-20T09:16:26.317Z,21.00
2019-03-20T09:18:55.525Z,20.60
2019-03-20T09:21:24.684Z,19.80
2019-03-20T09:23:53.844Z,20.00
2019-03-20T09:26:23.010Z,20.50
2019-03-20T09:28:52.197Z,20.80
2019-03-20T09:31:21.330Z,20.20
2019-03-20T09:33:50.598Z,20.90
2019-03-20T09:36:19.855Z,21.10
2019-03-20T09:38:49.095Z,20.50
2019-03-20T09:41:18.315Z,18.80
2019-03-20T09:43:47.525Z,16.70
2019-03-20T09:46:16.937Z,15.10
2019-03-20T09:48:46.119Z,16.10
2019-03-20T09:51:15.304Z,17.30
2019-03-20T09:53:44.644Z,18.80
2019-03-20T09:56:13.806Z,20.30
2019-03-20T09:58:42.985Z,21.80
2019-03-20T10:01:12.334Z,20.80
2019-03-20T10:03:41.814Z,20.20
2019-03-20T10:06:11.055Z,20.10
2019-03-20T10:08:40.327Z,20.80
2019-03-20T10:11:09.863Z,20.90
2019-03-20T10:13:39.016Z,20.20
2019-03-20T10:16:08.186Z,20.40
2019-03-20T10:18:37.441Z,20.60
2019-03-20T10:21:06.681Z,19.90
2019-03-20T10:23:35.986Z,18.30
2019-03-20T10:26:05.226Z,18.00
2019-03-20T10:28:34.490Z,18.70
2019-03-20T10:31:03.717Z,19.50
2019-03-20T10:33:32.906Z,20.10
2019-03-20T10:36:02.063Z,18.80
2019-03-20T10:38:31.239Z,17.30
2019-03-20T10:41:00.400Z,16.20
2019-03-20T10:43:29.560Z,16.30
2019-03-20T10:45:59.581Z,18.50
2019-03-20T10:48:28.961Z,19.80
2019-03-20T10:50:58.176Z,22.40
2019-03-20T10:53:27.400Z,23.50
2019-03-20T10:55:56.744Z,22.50
2019-03-20T10:58:26.021Z,21.90
2019-03-20T11:00:55.274Z,23.10
2019-03-20T11:03:24.515Z,24.70
2019-03-20T11:05:53.711Z,24.40
2019-03-20T11:08:22.923Z,22.70
2019-03-20T11:10:52.223Z,20.00
2019-03-20T11:13:21.595Z,17.90
2019-03-20T11:15:50.899Z,16.70
2019-03-20T11:18:20.201Z,15.80
2019-03-20T11:20:49.432Z,15.20
2019-03-20T11:23:18.597Z,15.10
2019-03-20T11:25:47.784Z,15.40
2019-03-20T11:28:17.039Z,15.20
2019-03-20T11:30:46.260Z,15.10
2019-03-20T11:33:15.531Z,13.80
2019-03-20T11:35:44.756Z,13.20
2019-03-20T11:38:13.911Z,13.90
2019-03-20T11:40:43.077Z,16.60
2019-03-20T11:43:12.236Z,19.60
2019-03-20T11:45:41.398Z,21.20
2019-03-20T11:48:10.654Z,20.40
2019-03-20T11:50:43.904Z,18.90
2019-03-20T11:53:12.923Z,17.30
2019-03-20T11:55:42.112Z,15.60
2019-03-20T11:58:11.381Z,15.40
2019-03-20T12:00:40.598Z,17.10
2019-03-20T12:03:09.774Z,17.30
2019-03-20T12:05:38.935Z,18.20
2019-03-20T12:08:09.725Z,17.40
2019-03-20T12:10:38.901Z,16.50
2019-03-20T12:13:08.075Z,14.80
2019-03-20T12:15:37.406Z,13.90
2019-03-20T12:18:06.713Z,14.70
2019-03-20T12:20:36.003Z,17.50
2019-03-20T12:23:05.495Z,18.80
2019-03-20T12:25:39.050Z,20.30
2019-03-20T12:28:08.298Z,21.90
2019-03-20T12:30:38.491Z,23.30
2019-03-20T12:33:07.870Z,22.40
2019-03-20T12:35:41.662Z,22.80
2019-03-20T12:38:14.726Z,23.20
2019-03-20T12:40:41.777Z,24.50
2019-03-20T12:43:11.077Z,26.10
2019-03-20T12:45:40.680Z,25.90
2019-03-20T12:48:13.042Z,27.20
2019-03-20T12:50:42.398Z,26.50
2019-03-20T12:53:29.114Z,25.20
2019-03-20T12:55:58.396Z,22.30
2019-03-20T12:58:27.577Z,18.80
2019-03-20T13:00:56.806Z,17.20
2019-03-20T13:03:25.988Z,17.90
2019-03-20T13:05:56.240Z,19.70
2019-03-20T13:08:25.403Z,19.90
2019-03-20T13:10:54.632Z,19.90
2019-03-20T13:13:23.832Z,19.50
2019-03-20T13:15:52.992Z,20.70
2019-03-20T13:18:22.277Z,21.60
2019-03-20T13:20:51.506Z,22.60
2019-03-20T13:23:26.916Z,21.90
2019-03-20T13:25:56.067Z,22.80
2019-03-20T13:28:25.247Z,23.50
2019-03-20T13:30:57.714Z,23.00
2019-03-20T13:33:26.985Z,22.10
2019-03-20T13:35:56.329Z,22.20
2019-03-20T13:38:25.510Z,22.90
2019-03-20T13:40:54.682Z,23.30
2019-03-20T13:43:23.844Z,23.10
2019-03-20T13:45:53.126Z,23.20
2019-03-20T13:48:22.320Z,23.10
2019-03-20T13:50:51.573Z,22.30
2019-03-20T13:53:20.826Z,20.50
2019-03-20T13:55:50.142Z,20.00
2019-03-20T13:58:19.366Z,20.90
2019-03-20T14:00:48.675Z,21.20
2019-03-20T14:03:17.911Z,21.40
2019-03-20T14:05:47.311Z,21.80
2019-03-20T14:08:17.815Z,22.60
2019-03-20T14:10:50.755Z,22.80
2019-03-20T14:13:18.055Z,22.60
2019-03-20T14:15:47.235Z,20.90
2019-03-20T14:18:16.490Z,20.80
2019-03-20T14:20:47.326Z,20.50
2019-03-20T14:23:16.493Z,21.20
2019-03-20T14:25:45.734Z,21.40
2019-03-20T14:28:14.908Z,21.30
2019-03-20T14:30:44.081Z,21.70
2019-03-20T14:33:13.350Z,21.70
2019-03-20T14:35:42.571Z,21.90
2019-03-20T14:38:11.752Z,22.30
2019-03-20T14:40:40.915Z,22.90
2019-03-20T14:43:10.350Z,22.60
2019-03-20T14:45:39.872Z,22.20
2019-03-20T14:48:09.078Z,21.70
2019-03-20T14:50:38.309Z,21.60
2019-03-20T14:53:07.487Z,21.10
2019-03-20T14:55:36.717Z,19.50
2019-03-20T14:58:06.071Z,17.70
2019-03-20T15:00:35.334Z,16.20
2019-03-20T15:03:04.642Z,14.60
2019-03-20T15:05:34.200Z,13.50
2019-03-20T15:08:03.625Z,12.90
2019-03-20T15:10:33.374Z,12.30
2019-03-20T15:13:02.684Z,11.90
2019-03-20T15:15:47.188Z,11.50
2019-03-20T15:18:17.020Z,11.20
2019-03-20T15:20:46.736Z,10.80
2019-03-20T15:23:16.157Z,10.50
2019-03-20T15:25:45.381Z,10.60
2019-03-20T15:28:14.619Z,10.70
2019-03-20T15:30:43.806Z,10.70
2019-03-20T15:33:12.957Z,10.80
2019-03-20T15:35:42.135Z,10.80
2019-03-20T15:38:11.370Z,10.80
2019-03-20T15:40:40.548Z,10.80
2019-03-20T15:43:09.710Z,11.00
2019-03-20T15:45:38.967Z,11.00
2019-03-20T15:48:08.248Z,10.80
2019-03-20T15:50:37.458Z,10.80
2019-03-20T15:53:06.779Z,10.70
2019-03-20T15:55:41.359Z,10.60
2019-03-20T15:58:10.624Z,10.60
2019-03-20T16:00:39.900Z,10.60
2019-03-20T16:03:27.306Z,10.60
2019-03-20T16:05:56.450Z,10.50
2019-03-20T16:08:25.705Z,10.50
2019-03-20T16:10:54.875Z,10.40
2019-03-20T16:13:24.159Z,10.30
2019-03-20T16:15:53.340Z,10.00
2019-03-20T16:18:22.565Z,9.90
2019-03-20T16:20:51.769Z,9.80
2019-03-20T16:23:22.078Z,9.70
2019-03-20T16:25:51.242Z,9.80
2019-03-20T16:28:20.818Z,9.80
2019-03-20T16:30:50.024Z,9.80
2019-03-20T16:33:19.377Z,9.70
2019-03-20T16:35:48.549Z,9.70
2019-03-20T16:38:17.833Z,9.70
2019-03-20T16:40:47.420Z,9.70
2019-03-20T16:43:16.812Z,9.70
2019-03-20T16:45:46.201Z,9.70
2019-03-20T16:48:15.566Z,9.60
2019-03-20T16:50:44.815Z,9.60
2019-03-20T16:53:15.685Z,9.60
2019-03-20T16:55:44.874Z,9.60
2019-03-20T16:58:14.079Z,9.50
2019-03-20T17:00:44.399Z,9.40
2019-03-20T17:03:13.592Z,9.30
2019-03-20T17:05:42.794Z,9.20
2019-03-20T17:08:13.052Z,9.10
2019-03-20T17:10:43.354Z,9.10
2019-03-20T17:13:12.542Z,9.00
2019-03-20T17:15:44.012Z,9.00
2019-03-20T17:18:13.559Z,8.90
2019-03-20T17:20:42.942Z,8.80
2019-03-20T17:23:12.158Z,8.70
2019-03-20T17:25:41.326Z,8.70
2019-03-20T17:28:10.488Z,8.60
2019-03-20T17:30:41.315Z,8.60
2019-03-20T17:33:10.627Z,8.50
2019-03-20T17:35:39.784Z,8.40
2019-03-20T17:38:09.104Z,8.40
2019-03-20T17:40:38.254Z,8.30
2019-03-20T17:43:07.439Z,8.30
2019-03-20T17:45:36.710Z,8.20
2019-03-20T17:48:06.071Z,8.10
2019-03-20T17:50:35.496Z,8.10
2019-03-20T17:53:05.368Z,8.00
2019-03-20T17:55:34.658Z,8.00
2019-03-20T17:58:04.507Z,7.90
2019-03-20T18:00:38.383Z,7.90
2019-03-20T18:03:07.751Z,7.80
2019-03-20T18:05:36.984Z,7.80
2019-03-20T18:08:07.298Z,7.90
2019-03-20T18:10:37.625Z,7.90
2019-03-20T18:13:08.145Z,7.80
2019-03-20T18:15:37.404Z,7.80
2019-03-20T18:18:07.963Z,7.80
2019-03-20T18:20:37.889Z,7.80
2019-03-20T18:23:07.792Z,7.70
2019-03-20T18:25:37.060Z,7.70
2019-03-20T18:28:06.508Z,7.60
2019-03-20T18:30:41.021Z,7.60
2019-03-20T18:33:10.239Z,7.50
2019-03-20T18:35:39.464Z,7.50
2019-03-20T18:38:08.680Z,7.50
2019-03-20T18:40:37.980Z,7.50
2019-03-20T18:43:07.348Z,7.50
2019-03-20T18:45:36.847Z,7.50
2019-03-20T18:48:06.155Z,7.50
2019-03-20T18:50:35.431Z,7.50
2019-03-20T18:53:06.854Z,7.40
2019-03-20T18:55:36.246Z,7.40
2019-03-20T18:58:05.658Z,7.40
2019-03-20T19:00:35.559Z,7.40
2019-03-20T19:03:20.055Z,7.30
2019-03-20T19:05:52.323Z,7.30
2019-03-20T19:08:21.586Z,7.20
2019-03-20T19:10:50.973Z,7.20
2019-03-20T19:13:20.225Z,7.10
2019-03-20T19:15:49.454Z,7.10
2019-03-20T19:18:18.644Z,7.00
2019-03-20T19:20:47.865Z,7.00
2019-03-20T19:23:17.114Z,7.00
2019-03-20T19:25:46.370Z,7.00
2019-03-20T19:28:15.565Z,7.00
2019-03-20T19:30:44.978Z,6.90
2019-03-20T19:33:14.333Z,6.90
2019-03-20T19:35:43.633Z,6.80
2019-03-20T19:38:13.068Z,6.80
2019-03-20T19:40:42.416Z,6.80
2019-03-20T19:43:13.091Z,6.80
2019-03-20T19:45:42.391Z,6.80
2019-03-20T19:48:13.728Z,6.70
2019-03-20T19:50:42.465Z,6.70
2019-03-20T19:53:11.741Z,6.60
2019-03-20T19:55:40.926Z,6.50
2019-03-20T19:58:10.075Z,6.50
2019-03-20T20:00:39.374Z,6.40
2019-03-20T20:03:08.627Z,6.40
2019-03-20T20:05:37.927Z,6.40
2019-03-20T20:08:07.109Z,6.40
2019-03-20T20:10:36.338Z,6.40
2019-03-20T20:13:05.609Z,6.30
2019-03-20T20:15:35.541Z,6.30
2019-03-20T20:18:04.899Z,6.20
2019-03-20T20:20:36.457Z,6.20
2019-03-20T20:23:05.657Z,6.10
2019-03-20T20:25:34.976Z,6.00
2019-03-20T20:28:04.186Z,6.00
2019-03-20T20:30:33.456Z,6.00
2019-03-20T20:33:02.691Z,6.00
2019-03-20T20:35:32.035Z,5.90
2019-03-20T20:38:01.477Z,5.80
2019-03-20T20:40:31.480Z,5.80
2019-03-20T20:43:00.793Z,5.80
2019-03-20T20:45:30.006Z,5.70
2019-03-20T20:47:59.216Z,5.50
2019-03-20T20:50:28.424Z,5.50
2019-03-20T20:52:57.694Z,5.50
2019-03-20T20:55:27.052Z,5.40
2019-03-20T20:57:59.536Z,5.40
2019-03-20T21:00:28.847Z,5.40
2019-03-20T21:02:58.422Z,5.40
2019-03-20T21:05:27.876Z,5.40
2019-03-20T21:07:57.257Z,5.30
2019-03-20T21:10:26.678Z,5.20
2019-03-20T21:12:57.421Z,5.10
2019-03-20T21:15:35.037Z,5.10
2019-03-20T21:18:16.259Z,5.00
2019-03-20T21:20:47.368Z,5.00
2019-03-20T21:23:41.582Z,5.00
2019-03-20T21:26:28.601Z,4.80
2019-03-20T21:29:34.311Z,4.70
2019-03-20T21:32:13.044Z,4.70
2019-03-20T21:35:03.617Z,4.50
2019-03-20T21:37:51.356Z,4.40
2019-03-20T21:40:20.593Z,4.30
2019-03-20T21:43:26.242Z,4.20
2019-03-20T21:45:58.657Z,4.20
2019-03-20T21:48:27.897Z,4.10
2019-03-20T21:51:03.317Z,4.00
2019-03-20T21:54:04.661Z,3.90
2019-03-20T21:57:05.687Z,3.80
2019-03-20T21:59:59.494Z,3.80
2019-03-20T22:02:44.864Z,3.80
2019-03-20T22:05:32.162Z,3.80
2019-03-20T22:08:01.311Z,3.80
2019-03-20T22:10:50.020Z,3.70
2019-03-20T22:13:22.421Z,3.70
2019-03-20T22:16:10.350Z,3.70
2019-03-20T22:18:52.133Z,3.60
2019-03-20T22:21:30.270Z,3.60
2019-03-20T22:24:23.654Z,3.50
2019-03-20T22:26:59.937Z,3.40
2019-03-20T22:29:29.199Z,3.40
2019-03-20T22:32:13.270Z,3.30
2019-03-20T22:34:54.734Z,3.30
2019-03-20T22:37:23.914Z,3.30
2019-03-20T22:40:14.410Z,3.20
2019-03-20T22:43:07.767Z,3.20
2019-03-20T22:45:54.757Z,3.20
2019-03-20T22:48:35.678Z,3.10
2019-03-20T22:51:27.697Z,3.10
2019-03-20T22:54:00.265Z,3.10
2019-03-20T22:56:55.156Z,3.10
2019-03-20T22:59:24.343Z,3.20
2019-03-20T23:02:16.692Z,3.30
2019-03-20T23:04:51.810Z,3.20
2019-03-20T23:07:21.030Z,3.20
2019-03-20T23:09:50.270Z,3.30
2019-03-20T23:12:19.581Z,3.30
2019-03-20T23:14:48.804Z,3.30
2019-03-20T23:17:18.411Z,3.20
2019-03-20T23:19:48.224Z,3.20
2019-03-20T23:22:17.422Z,3.20
2019-03-20T23:24:46.915Z,3.20
2019-03-20T23:27:19.905Z,3.10
2019-03-20T23:29:48.450Z,2.90
2019-03-20T23:32:18.780Z,2.90
2019-03-20T23:34:47.920Z,2.90
2019-03-20T23:37:17.119Z,2.90
2019-03-20T23:39:46.352Z,2.90
2019-03-20T23:42:15.594Z,2.80
2019-03-20T23:44:44.824Z,2.80
2019-03-20T23:47:14.002Z,2.80
2019-03-20T23:49:43.160Z,2.90
2019-03-20T23:52:12.470Z,2.90
2019-03-20T23:54:45.800Z,2.90
2019-03-20T23:57:15.645Z,2.80
2019-03-20T23:59:44.847Z,2.80
